sensor_id;sensor_type;location;lat;lon;timestamp;P1;durP1;ratioP1;P2;durP2;ratioP2
39930;SDS011;26635;-35.248;149.138;2023-02-01T00:02:03;2.47;;;1.52;;
39930;SDS011;26635;-35.248;149.138;2023-02-01T00:04:37;4.22;;;2.00;;
39930;SDS011;26635;-35.248;149.138;2023-02-01T00:07:11;2.78;;;1.75;;
39930;SDS011;26635;-35.248;149.138;2023-02-01T00:09:42;4.88;;;2.00;;
39930;SDS011;26635;-35.248;149.138;2023-02-01T00:12:12;2.22;;;1.65;;
39930;SDS011;26635;-35.248;149.138;2023-02-01T00:14:43;7.13;;;2.22;;
39930;SDS011;26635;-35.248;149.138;2023-02-01T00:17:13;2.85;;;1.63;;
39930;SDS011;26635;-35.248;149.138;2023-02-01T00:19:43;2.00;;;1.67;;
39930;SDS011;26635;-35.248;149.138;2023-02-01T00:22:14;2.80;;;1.60;;
39930;SDS011;26635;-35.248;149.138;2023-02-01T00:24:45;2.75;;;2.10;;
39930;SDS011;26635;-35.248;149.138;2023-02-01T00:27:15;3.03;;;1.92;;
39930;SDS011;26635;-35.248;149.138;2023-02-01T00:29:49;2.30;;;2.00;;
39930;SDS011;26635;-35.248;149.138;2023-02-01T00:32:19;2.25;;;2.05;;
39930;SDS011;26635;-35.248;149.138;2023-02-01T00:34:51;4.13;;;2.67;;
39930;SDS011;26635;-35.248;149.138;2023-02-01T00:37:22;2.42;;;1.80;;
39930;SDS011;26635;-35.248;149.138;2023-02-01T00:39:53;2.95;;;1.75;;
39930;SDS011;26635;-35.248;149.138;2023-02-01T00:42:24;2.60;;;1.83;;
39930;SDS011;26635;-35.248;149.138;2023-02-01T00:44:55;2.00;;;1.80;;
39930;SDS011;26635;-35.248;149.138;2023-02-01T00:47:27;1.98;;;1.67;;
39930;SDS011;26635;-35.248;149.138;2023-02-01T00:49:59;2.35;;;1.60;;
39930;SDS011;26635;-35.248;149.138;2023-02-01T00:52:30;3.10;;;2.10;;
39930;SDS011;26635;-35.248;149.138;2023-02-01T00:55:01;2.33;;;1.60;;
39930;SDS011;26635;-35.248;149.138;2023-02-01T00:57:34;2.90;;;1.60;;
39930;SDS011;26635;-35.248;149.138;2023-02-01T01:00:05;2.15;;;1.77;;
39930;SDS011;26635;-35.248;149.138;2023-02-01T01:02:37;2.28;;;1.50;;
39930;SDS011;26635;-35.248;149.138;2023-02-01T01:05:07;2.40;;;1.65;;
39930;SDS011;26635;-35.248;149.138;2023-02-01T01:07:38;1.52;;;1.42;;
39930;SDS011;26635;-35.248;149.138;2023-02-01T01:10:10;3.67;;;1.80;;
39930;SDS011;26635;-35.248;149.138;2023-02-01T01:12:40;1.92;;;1.52;;
39930;SDS011;26635;-35.248;149.138;2023-02-01T01:15:11;4.35;;;1.50;;
39930;SDS011;26635;-35.248;149.138;2023-02-01T01:17:42;1.55;;;1.40;;
39930;SDS011;26635;-35.248;149.138;2023-02-01T01:20:12;3.33;;;1.60;;
39930;SDS011;26635;-35.248;149.138;2023-02-01T01:22:43;2.38;;;1.20;;
39930;SDS011;26635;-35.248;149.138;2023-02-01T01:25:14;3.10;;;1.73;;
39930;SDS011;26635;-35.248;149.138;2023-02-01T01:27:44;3.28;;;1.20;;
39930;SDS011;26635;-35.248;149.138;2023-02-01T01:30:15;4.20;;;1.50;;
39930;SDS011;26635;-35.248;149.138;2023-02-01T01:32:46;1.98;;;1.63;;
39930;SDS011;26635;-35.248;149.138;2023-02-01T01:35:17;3.15;;;1.75;;
39930;SDS011;26635;-35.248;149.138;2023-02-01T01:37:47;2.97;;;1.60;;
39930;SDS011;26635;-35.248;149.138;2023-02-01T01:40:17;1.60;;;1.33;;
39930;SDS011;26635;-35.248;149.138;2023-02-01T01:42:48;2.50;;;1.30;;
39930;SDS011;26635;-35.248;149.138;2023-02-01T01:45:33;1.50;;;1.30;;
39930;SDS011;26635;-35.248;149.138;2023-02-01T01:50:49;2.95;;;1.88;;
39930;SDS011;26635;-35.248;149.138;2023-02-01T01:53:31;7.88;;;2.35;;
39930;SDS011;26635;-35.248;149.138;2023-02-01T01:56:07;2.17;;;1.33;;
39930;SDS011;26635;-35.248;149.138;2023-02-01T01:58:39;2.17;;;1.48;;
39930;SDS011;26635;-35.248;149.138;2023-02-01T02:01:11;1.77;;;1.40;;
39930;SDS011;26635;-35.248;149.138;2023-02-01T02:03:42;2.15;;;1.60;;
39930;SDS011;26635;-35.248;149.138;2023-02-01T02:09:02;2.87;;;1.50;;
39930;SDS011;26635;-35.248;149.138;2023-02-01T02:11:34;2.60;;;1.00;;
39930;SDS011;26635;-35.248;149.138;2023-02-01T02:14:05;1.88;;;1.67;;
39930;SDS011;26635;-35.248;149.138;2023-02-01T02:34:44;3.05;;;1.67;;
39930;SDS011;26635;-35.248;149.138;2023-02-01T02:40:22;4.97;;;1.48;;
39930;SDS011;26635;-35.248;149.138;2023-02-01T02:46:40;5.07;;;1.27;;
39930;SDS011;26635;-35.248;149.138;2023-02-01T02:49:42;2.30;;;0.82;;
39930;SDS011;26635;-35.248;149.138;2023-02-01T02:53:02;2.67;;;0.68;;
39930;SDS011;26635;-35.248;149.138;2023-02-01T02:55:59;2.08;;;0.88;;
39930;SDS011;26635;-35.248;149.138;2023-02-01T02:58:51;2.17;;;0.85;;
39930;SDS011;26635;-35.248;149.138;2023-02-01T03:01:41;1.75;;;0.80;;
39930;SDS011;26635;-35.248;149.138;2023-02-01T03:04:32;1.83;;;0.80;;
39930;SDS011;26635;-35.248;149.138;2023-02-01T03:07:12;2.67;;;0.98;;
39930;SDS011;26635;-35.248;149.138;2023-02-01T03:10:05;1.13;;;0.57;;
39930;SDS011;26635;-35.248;149.138;2023-02-01T03:12:39;2.25;;;0.70;;
39930;SDS011;26635;-35.248;149.138;2023-02-01T03:15:26;0.88;;;0.55;;
39930;SDS011;26635;-35.248;149.138;2023-02-01T03:18:01;3.45;;;0.80;;
39930;SDS011;26635;-35.248;149.138;2023-02-01T03:20:36;2.10;;;0.70;;
39930;SDS011;26635;-35.248;149.138;2023-02-01T03:23:10;1.10;;;0.65;;
39930;SDS011;26635;-35.248;149.138;2023-02-01T03:25:44;2.20;;;0.50;;
39930;SDS011;26635;-35.248;149.138;2023-02-01T03:28:21;0.60;;;0.50;;
39930;SDS011;26635;-35.248;149.138;2023-02-01T03:30:54;1.20;;;0.60;;
39930;SDS011;26635;-35.248;149.138;2023-02-01T03:33:25;1.20;;;0.50;;
39930;SDS011;26635;-35.248;149.138;2023-02-01T03:36:01;1.30;;;0.57;;
39930;SDS011;26635;-35.248;149.138;2023-02-01T03:38:58;0.85;;;0.80;;
39930;SDS011;26635;-35.248;149.138;2023-02-01T03:41:41;2.10;;;0.52;;
39930;SDS011;26635;-35.248;149.138;2023-02-01T03:49:50;1.75;;;0.80;;
39930;SDS011;26635;-35.248;149.138;2023-02-01T03:52:41;3.17;;;0.80;;
39930;SDS011;26635;-35.248;149.138;2023-02-01T03:55:15;0.95;;;0.70;;
39930;SDS011;26635;-35.248;149.138;2023-02-01T03:57:51;0.93;;;0.80;;
39930;SDS011;26635;-35.248;149.138;2023-02-01T04:00:35;2.03;;;1.00;;
39930;SDS011;26635;-35.248;149.138;2023-02-01T04:03:10;2.25;;;0.80;;
39930;SDS011;26635;-35.248;149.138;2023-02-01T04:05:41;0.80;;;0.70;;
39930;SDS011;26635;-35.248;149.138;2023-02-01T04:08:12;1.75;;;0.73;;
39930;SDS011;26635;-35.248;149.138;2023-02-01T04:10:46;0.80;;;0.73;;
39930;SDS011;26635;-35.248;149.138;2023-02-01T04:13:17;1.33;;;0.63;;
39930;SDS011;26635;-35.248;149.138;2023-02-01T04:15:48;1.00;;;0.60;;
39930;SDS011;26635;-35.248;149.138;2023-02-01T04:18:18;0.93;;;0.90;;
39930;SDS011;26635;-35.248;149.138;2023-02-01T04:20:48;0.77;;;0.60;;
39930;SDS011;26635;-35.248;149.138;2023-02-01T04:23:19;0.80;;;0.70;;
39930;SDS011;26635;-35.248;149.138;2023-02-01T04:25:50;0.80;;;0.70;;
39930;SDS011;26635;-35.248;149.138;2023-02-01T04:28:20;0.93;;;0.52;;
39930;SDS011;26635;-35.248;149.138;2023-02-01T04:30:50;2.38;;;0.65;;
39930;SDS011;26635;-35.248;149.138;2023-02-01T04:33:20;0.60;;;0.60;;
39930;SDS011;26635;-35.248;149.138;2023-02-01T04:35:51;1.67;;;0.50;;
39930;SDS011;26635;-35.248;149.138;2023-02-01T04:38:27;1.50;;;0.90;;
39930;SDS011;26635;-35.248;149.138;2023-02-01T04:40:58;3.42;;;0.90;;
39930;SDS011;26635;-35.248;149.138;2023-02-01T04:43:28;1.80;;;0.80;;
39930;SDS011;26635;-35.248;149.138;2023-02-01T04:45:59;1.00;;;0.70;;
39930;SDS011;26635;-35.248;149.138;2023-02-01T04:48:29;2.50;;;0.73;;
39930;SDS011;26635;-35.248;149.138;2023-02-01T04:50:59;1.25;;;0.70;;
39930;SDS011;26635;-35.248;149.138;2023-02-01T04:53:30;1.05;;;0.90;;
39930;SDS011;26635;-35.248;149.138;2023-02-01T04:56:00;1.70;;;1.20;;
39930;SDS011;26635;-35.248;149.138;2023-02-01T04:58:31;1.05;;;0.80;;
39930;SDS011;26635;-35.248;149.138;2023-02-01T05:01:04;2.17;;;0.80;;
39930;SDS011;26635;-35.248;149.138;2023-02-01T05:03:36;1.40;;;1.00;;
39930;SDS011;26635;-35.248;149.138;2023-02-01T05:06:07;1.00;;;0.85;;
39930;SDS011;26635;-35.248;149.138;2023-02-01T05:08:37;1.35;;;1.00;;
39930;SDS011;26635;-35.248;149.138;2023-02-01T05:11:07;2.35;;;1.05;;
39930;SDS011;26635;-35.248;149.138;2023-02-01T05:14:00;2.33;;;1.50;;
39930;SDS011;26635;-35.248;149.138;2023-02-01T05:16:30;2.45;;;1.70;;
39930;SDS011;26635;-35.248;149.138;2023-02-01T05:19:01;2.65;;;1.00;;
39930;SDS011;26635;-35.248;149.138;2023-02-01T05:21:31;3.30;;;0.80;;
39930;SDS011;26635;-35.248;149.138;2023-02-01T05:24:02;1.95;;;0.90;;
39930;SDS011;26635;-35.248;149.138;2023-02-01T05:26:41;3.00;;;1.70;;
39930;SDS011;26635;-35.248;149.138;2023-02-01T05:29:12;1.67;;;1.15;;
39930;SDS011;26635;-35.248;149.138;2023-02-01T05:31:46;2.17;;;1.15;;
39930;SDS011;26635;-35.248;149.138;2023-02-01T05:34:17;1.63;;;1.15;;
39930;SDS011;26635;-35.248;149.138;2023-02-01T05:36:48;1.35;;;1.00;;
39930;SDS011;26635;-35.248;149.138;2023-02-01T05:39:18;2.35;;;1.02;;
39930;SDS011;26635;-35.248;149.138;2023-02-01T05:41:49;2.28;;;1.33;;
39930;SDS011;26635;-35.248;149.138;2023-02-01T05:44:19;1.20;;;1.10;;
39930;SDS011;26635;-35.248;149.138;2023-02-01T05:46:50;1.42;;;0.88;;
39930;SDS011;26635;-35.248;149.138;2023-02-01T05:49:21;1.23;;;0.90;;
39930;SDS011;26635;-35.248;149.138;2023-02-01T05:51:51;1.25;;;1.00;;
39930;SDS011;26635;-35.248;149.138;2023-02-01T05:54:22;1.13;;;0.70;;
39930;SDS011;26635;-35.248;149.138;2023-02-01T05:56:52;1.77;;;0.98;;
39930;SDS011;26635;-35.248;149.138;2023-02-01T05:59:23;1.02;;;0.90;;
39930;SDS011;26635;-35.248;149.138;2023-02-01T06:01:54;1.85;;;0.95;;
39930;SDS011;26635;-35.248;149.138;2023-02-01T06:04:24;1.00;;;0.80;;
39930;SDS011;26635;-35.248;149.138;2023-02-01T06:06:55;2.63;;;0.90;;
39930;SDS011;26635;-35.248;149.138;2023-02-01T06:09:25;3.65;;;1.63;;
39930;SDS011;26635;-35.248;149.138;2023-02-01T06:11:56;2.20;;;1.02;;
39930;SDS011;26635;-35.248;149.138;2023-02-01T06:14:28;2.28;;;1.00;;
39930;SDS011;26635;-35.248;149.138;2023-02-01T06:16:58;1.83;;;1.05;;
39930;SDS011;26635;-35.248;149.138;2023-02-01T06:19:29;1.63;;;1.05;;
39930;SDS011;26635;-35.248;149.138;2023-02-01T06:21:59;2.00;;;0.77;;
39930;SDS011;26635;-35.248;149.138;2023-02-01T06:24:29;1.23;;;0.60;;
39930;SDS011;26635;-35.248;149.138;2023-02-01T06:27:00;1.50;;;0.90;;
39930;SDS011;26635;-35.248;149.138;2023-02-01T06:29:30;3.08;;;0.93;;
39930;SDS011;26635;-35.248;149.138;2023-02-01T06:32:01;0.98;;;0.80;;
39930;SDS011;26635;-35.248;149.138;2023-02-01T06:34:31;1.20;;;0.82;;
39930;SDS011;26635;-35.248;149.138;2023-02-01T06:37:02;1.38;;;0.70;;
39930;SDS011;26635;-35.248;149.138;2023-02-01T06:39:33;2.92;;;0.90;;
39930;SDS011;26635;-35.248;149.138;2023-02-01T06:42:03;1.23;;;0.90;;
39930;SDS011;26635;-35.248;149.138;2023-02-01T06:44:37;0.88;;;0.80;;
39930;SDS011;26635;-35.248;149.138;2023-02-01T06:47:17;2.65;;;1.10;;
39930;SDS011;26635;-35.248;149.138;2023-02-01T06:49:48;1.60;;;0.95;;
39930;SDS011;26635;-35.248;149.138;2023-02-01T06:52:19;1.88;;;0.90;;
39930;SDS011;26635;-35.248;149.138;2023-02-01T06:54:49;3.05;;;0.90;;
39930;SDS011;26635;-35.248;149.138;2023-02-01T06:57:19;1.27;;;0.60;;
39930;SDS011;26635;-35.248;149.138;2023-02-01T06:59:50;0.90;;;0.70;;
39930;SDS011;26635;-35.248;149.138;2023-02-01T07:02:20;1.80;;;0.65;;
39930;SDS011;26635;-35.248;149.138;2023-02-01T07:04:51;2.25;;;0.80;;
39930;SDS011;26635;-35.248;149.138;2023-02-01T07:07:21;2.47;;;0.82;;
39930;SDS011;26635;-35.248;149.138;2023-02-01T07:09:52;0.95;;;0.52;;
39930;SDS011;26635;-35.248;149.138;2023-02-01T07:12:22;1.25;;;0.93;;
39930;SDS011;26635;-35.248;149.138;2023-02-01T07:14:53;2.45;;;0.73;;
39930;SDS011;26635;-35.248;149.138;2023-02-01T07:17:23;1.10;;;0.60;;
39930;SDS011;26635;-35.248;149.138;2023-02-01T07:19:54;1.92;;;1.00;;
39930;SDS011;26635;-35.248;149.138;2023-02-01T07:22:27;1.25;;;1.02;;
39930;SDS011;26635;-35.248;149.138;2023-02-01T07:24:57;1.35;;;0.75;;
39930;SDS011;26635;-35.248;149.138;2023-02-01T07:27:29;2.53;;;0.70;;
39930;SDS011;26635;-35.248;149.138;2023-02-01T07:29:59;1.48;;;0.77;;
39930;SDS011;26635;-35.248;149.138;2023-02-01T07:32:30;2.55;;;0.70;;
39930;SDS011;26635;-35.248;149.138;2023-02-01T07:35:01;1.98;;;1.60;;
39930;SDS011;26635;-35.248;149.138;2023-02-01T07:37:31;1.83;;;0.88;;
39930;SDS011;26635;-35.248;149.138;2023-02-01T07:40:02;1.90;;;0.77;;
39930;SDS011;26635;-35.248;149.138;2023-02-01T07:42:33;2.85;;;1.10;;
39930;SDS011;26635;-35.248;149.138;2023-02-01T07:45:04;2.45;;;0.98;;
39930;SDS011;26635;-35.248;149.138;2023-02-01T07:47:47;3.17;;;0.93;;
39930;SDS011;26635;-35.248;149.138;2023-02-01T07:50:18;2.55;;;0.88;;
39930;SDS011;26635;-35.248;149.138;2023-02-01T07:52:49;1.52;;;0.80;;
39930;SDS011;26635;-35.248;149.138;2023-02-01T07:55:20;2.25;;;0.88;;
39930;SDS011;26635;-35.248;149.138;2023-02-01T07:57:50;1.17;;;0.77;;
39930;SDS011;26635;-35.248;149.138;2023-02-01T08:00:20;1.58;;;1.27;;
39930;SDS011;26635;-35.248;149.138;2023-02-01T08:03:08;3.78;;;1.95;;
39930;SDS011;26635;-35.248;149.138;2023-02-01T08:05:39;1.88;;;1.20;;
39930;SDS011;26635;-35.248;149.138;2023-02-01T08:08:09;1.88;;;0.93;;
39930;SDS011;26635;-35.248;149.138;2023-02-01T08:10:40;2.50;;;1.00;;
39930;SDS011;26635;-35.248;149.138;2023-02-01T08:13:10;2.28;;;0.90;;
39930;SDS011;26635;-35.248;149.138;2023-02-01T08:15:40;3.10;;;0.85;;
39930;SDS011;26635;-35.248;149.138;2023-02-01T08:18:11;1.40;;;0.82;;
39930;SDS011;26635;-35.248;149.138;2023-02-01T08:20:44;2.03;;;1.10;;
39930;SDS011;26635;-35.248;149.138;2023-02-01T08:23:16;1.17;;;0.95;;
39930;SDS011;26635;-35.248;149.138;2023-02-01T08:25:46;1.08;;;0.75;;
39930;SDS011;26635;-35.248;149.138;2023-02-01T08:28:17;1.83;;;0.82;;
39930;SDS011;26635;-35.248;149.138;2023-02-01T08:30:47;2.42;;;1.00;;
39930;SDS011;26635;-35.248;149.138;2023-02-01T08:33:18;1.00;;;0.60;;
39930;SDS011;26635;-35.248;149.138;2023-02-01T08:35:48;1.70;;;0.93;;
39930;SDS011;26635;-35.248;149.138;2023-02-01T08:38:18;2.58;;;0.82;;
39930;SDS011;26635;-35.248;149.138;2023-02-01T08:41:02;0.65;;;0.52;;
39930;SDS011;26635;-35.248;149.138;2023-02-01T08:43:38;2.97;;;0.80;;
39930;SDS011;26635;-35.248;149.138;2023-02-01T08:46:09;1.35;;;0.80;;
39930;SDS011;26635;-35.248;149.138;2023-02-01T08:48:40;1.73;;;0.60;;
39930;SDS011;26635;-35.248;149.138;2023-02-01T08:51:11;1.17;;;0.63;;
39930;SDS011;26635;-35.248;149.138;2023-02-01T08:53:44;0.98;;;0.70;;
39930;SDS011;26635;-35.248;149.138;2023-02-01T08:56:15;2.25;;;0.80;;
39930;SDS011;26635;-35.248;149.138;2023-02-01T08:58:46;2.67;;;0.90;;
39930;SDS011;26635;-35.248;149.138;2023-02-01T09:01:17;0.82;;;0.50;;
39930;SDS011;26635;-35.248;149.138;2023-02-01T09:03:47;1.98;;;0.50;;
39930;SDS011;26635;-35.248;149.138;2023-02-01T09:06:18;1.55;;;0.70;;
39930;SDS011;26635;-35.248;149.138;2023-02-01T09:08:48;1.55;;;0.65;;
39930;SDS011;26635;-35.248;149.138;2023-02-01T09:11:18;1.60;;;0.70;;
39930;SDS011;26635;-35.248;149.138;2023-02-01T09:13:49;0.85;;;0.50;;
39930;SDS011;26635;-35.248;149.138;2023-02-01T09:16:19;0.90;;;0.50;;
39930;SDS011;26635;-35.248;149.138;2023-02-01T09:18:49;1.23;;;0.50;;
39930;SDS011;26635;-35.248;149.138;2023-02-01T09:21:40;1.67;;;0.50;;
39930;SDS011;26635;-35.248;149.138;2023-02-01T09:24:10;1.02;;;0.63;;
39930;SDS011;26635;-35.248;149.138;2023-02-01T09:26:41;1.00;;;0.43;;
39930;SDS011;26635;-35.248;149.138;2023-02-01T09:29:11;1.10;;;0.50;;
39930;SDS011;26635;-35.248;149.138;2023-02-01T09:31:42;2.75;;;0.50;;
39930;SDS011;26635;-35.248;149.138;2023-02-01T09:34:28;0.95;;;0.50;;
39930;SDS011;26635;-35.248;149.138;2023-02-01T09:36:59;1.17;;;0.88;;
39930;SDS011;26635;-35.248;149.138;2023-02-01T09:39:30;2.00;;;1.00;;
39930;SDS011;26635;-35.248;149.138;2023-02-01T09:42:12;1.00;;;0.52;;
39930;SDS011;26635;-35.248;149.138;2023-02-01T09:45:03;0.68;;;0.43;;
39930;SDS011;26635;-35.248;149.138;2023-02-01T09:47:48;1.77;;;0.60;;
39930;SDS011;26635;-35.248;149.138;2023-02-01T09:50:33;3.03;;;0.60;;
39930;SDS011;26635;-35.248;149.138;2023-02-01T09:56:11;1.05;;;0.40;;
39930;SDS011;26635;-35.248;149.138;2023-02-01T10:02:00;3.30;;;1.02;;
39930;SDS011;26635;-35.248;149.138;2023-02-01T10:04:34;2.00;;;0.50;;
39930;SDS011;26635;-35.248;149.138;2023-02-01T10:07:13;2.05;;;0.80;;
39930;SDS011;26635;-35.248;149.138;2023-02-01T10:10:21;1.75;;;0.77;;
39930;SDS011;26635;-35.248;149.138;2023-02-01T10:16:19;1.45;;;0.60;;
39930;SDS011;26635;-35.248;149.138;2023-02-01T10:19:10;1.63;;;0.60;;
39930;SDS011;26635;-35.248;149.138;2023-02-01T10:22:08;0.98;;;0.70;;
39930;SDS011;26635;-35.248;149.138;2023-02-01T10:24:41;2.03;;;0.57;;
39930;SDS011;26635;-35.248;149.138;2023-02-01T10:27:13;0.85;;;0.60;;
39930;SDS011;26635;-35.248;149.138;2023-02-01T10:29:45;1.38;;;0.45;;
39930;SDS011;26635;-35.248;149.138;2023-02-01T10:32:29;1.23;;;0.88;;
39930;SDS011;26635;-35.248;149.138;2023-02-01T10:37:46;2.25;;;0.63;;
39930;SDS011;26635;-35.248;149.138;2023-02-01T10:40:23;1.17;;;0.57;;
39930;SDS011;26635;-35.248;149.138;2023-02-01T10:42:58;1.75;;;0.60;;
39930;SDS011;26635;-35.248;149.138;2023-02-01T10:45:33;1.10;;;0.70;;
39930;SDS011;26635;-35.248;149.138;2023-02-01T10:48:04;1.60;;;0.85;;
39930;SDS011;26635;-35.248;149.138;2023-02-01T10:56:07;2.55;;;1.20;;
39930;SDS011;26635;-35.248;149.138;2023-02-01T10:58:46;2.63;;;0.82;;
39930;SDS011;26635;-35.248;149.138;2023-02-01T11:01:21;2.63;;;0.93;;
39930;SDS011;26635;-35.248;149.138;2023-02-01T11:04:00;2.33;;;0.90;;
39930;SDS011;26635;-35.248;149.138;2023-02-01T11:06:38;2.47;;;0.90;;
39930;SDS011;26635;-35.248;149.138;2023-02-01T11:09:15;3.83;;;1.52;;
39930;SDS011;26635;-35.248;149.138;2023-02-01T11:11:57;3.65;;;1.60;;
39930;SDS011;26635;-35.248;149.138;2023-02-01T11:14:37;3.75;;;1.60;;
39930;SDS011;26635;-35.248;149.138;2023-02-01T11:19:55;5.43;;;1.92;;
39930;SDS011;26635;-35.248;149.138;2023-02-01T11:22:28;2.97;;;1.30;;
39930;SDS011;26635;-35.248;149.138;2023-02-01T11:24:59;3.08;;;1.30;;
39930;SDS011;26635;-35.248;149.138;2023-02-01T11:27:36;2.65;;;1.55;;
39930;SDS011;26635;-35.248;149.138;2023-02-01T11:30:29;4.20;;;1.92;;
39930;SDS011;26635;-35.248;149.138;2023-02-01T11:33:10;7.32;;;2.13;;
39930;SDS011;26635;-35.248;149.138;2023-02-01T11:35:44;4.82;;;1.73;;
39930;SDS011;26635;-35.248;149.138;2023-02-01T11:38:37;2.10;;;1.60;;
39930;SDS011;26635;-35.248;149.138;2023-02-01T11:41:13;6.07;;;1.63;;
39930;SDS011;26635;-35.248;149.138;2023-02-01T11:43:59;3.40;;;1.98;;
39930;SDS011;26635;-35.248;149.138;2023-02-01T11:46:32;6.90;;;1.48;;
39930;SDS011;26635;-35.248;149.138;2023-02-01T11:49:15;3.72;;;2.00;;
39930;SDS011;26635;-35.248;149.138;2023-02-01T11:55:13;4.72;;;1.60;;
39930;SDS011;26635;-35.248;149.138;2023-02-01T12:12:41;6.22;;;2.28;;
39930;SDS011;26635;-35.248;149.138;2023-02-01T12:18:03;3.45;;;1.80;;
39930;SDS011;26635;-35.248;149.138;2023-02-01T12:23:46;6.88;;;2.45;;
39930;SDS011;26635;-35.248;149.138;2023-02-01T12:34:48;2.80;;;2.00;;
39930;SDS011;26635;-35.248;149.138;2023-02-01T12:46:23;3.05;;;2.00;;
39930;SDS011;26635;-35.248;149.138;2023-02-01T12:51:58;3.30;;;2.00;;
39930;SDS011;26635;-35.248;149.138;2023-02-01T12:57:46;2.65;;;2.40;;
39930;SDS011;26635;-35.248;149.138;2023-02-01T13:00:44;4.82;;;1.98;;
39930;SDS011;26635;-35.248;149.138;2023-02-01T13:11:42;6.50;;;2.70;;
39930;SDS011;26635;-35.248;149.138;2023-02-01T13:17:22;4.72;;;2.70;;
39930;SDS011;26635;-35.248;149.138;2023-02-01T13:22:52;4.05;;;2.22;;
39930;SDS011;26635;-35.248;149.138;2023-02-01T13:28:28;3.53;;;2.20;;
39930;SDS011;26635;-35.248;149.138;2023-02-01T13:42:56;7.15;;;2.80;;
39930;SDS011;26635;-35.248;149.138;2023-02-01T13:45:35;6.53;;;2.67;;
39930;SDS011;26635;-35.248;149.138;2023-02-01T13:48:31;4.38;;;2.40;;
39930;SDS011;26635;-35.248;149.138;2023-02-01T13:51:15;4.60;;;2.35;;
39930;SDS011;26635;-35.248;149.138;2023-02-01T13:53:57;6.15;;;2.40;;
39930;SDS011;26635;-35.248;149.138;2023-02-01T13:56:28;4.95;;;2.50;;
39930;SDS011;26635;-35.248;149.138;2023-02-01T14:00:09;4.57;;;2.30;;
39930;SDS011;26635;-35.248;149.138;2023-02-01T14:10:59;3.63;;;1.80;;
39930;SDS011;26635;-35.248;149.138;2023-02-01T14:21:33;4.93;;;2.75;;
39930;SDS011;26635;-35.248;149.138;2023-02-01T14:24:23;4.22;;;2.90;;
39930;SDS011;26635;-35.248;149.138;2023-02-01T14:27:06;5.25;;;2.60;;
39930;SDS011;26635;-35.248;149.138;2023-02-01T14:30:07;4.35;;;2.35;;
39930;SDS011;26635;-35.248;149.138;2023-02-01T14:32:43;3.55;;;2.50;;
39930;SDS011;26635;-35.248;149.138;2023-02-01T14:37:51;5.53;;;2.20;;
39930;SDS011;26635;-35.248;149.138;2023-02-01T14:40:27;7.07;;;2.42;;
39930;SDS011;26635;-35.248;149.138;2023-02-01T14:42:59;6.50;;;2.72;;
39930;SDS011;26635;-35.248;149.138;2023-02-01T14:50:46;4.35;;;2.22;;
39930;SDS011;26635;-35.248;149.138;2023-02-01T14:53:21;5.85;;;3.10;;
39930;SDS011;26635;-35.248;149.138;2023-02-01T15:01:56;4.60;;;2.47;;
39930;SDS011;26635;-35.248;149.138;2023-02-01T15:04:30;3.83;;;2.50;;
39930;SDS011;26635;-35.248;149.138;2023-02-01T15:07:11;2.92;;;2.58;;
39930;SDS011;26635;-35.248;149.138;2023-02-01T15:09:44;6.10;;;3.55;;
39930;SDS011;26635;-35.248;149.138;2023-02-01T15:12:17;4.57;;;2.40;;
39930;SDS011;26635;-35.248;149.138;2023-02-01T15:17:51;5.07;;;2.25;;
39930;SDS011;26635;-35.248;149.138;2023-02-01T15:20:32;5.88;;;2.28;;
39930;SDS011;26635;-35.248;149.138;2023-02-01T15:23:05;6.60;;;2.35;;
39930;SDS011;26635;-35.248;149.138;2023-02-01T15:25:45;3.13;;;2.22;;
39930;SDS011;26635;-35.248;149.138;2023-02-01T15:28:18;5.40;;;3.05;;
39930;SDS011;26635;-35.248;149.138;2023-02-01T15:30:54;5.57;;;3.55;;
39930;SDS011;26635;-35.248;149.138;2023-02-01T15:33:29;5.38;;;2.58;;
39930;SDS011;26635;-35.248;149.138;2023-02-01T15:38:44;3.88;;;2.25;;
39930;SDS011;26635;-35.248;149.138;2023-02-01T15:41:15;5.82;;;2.58;;
39930;SDS011;26635;-35.248;149.138;2023-02-01T15:46:33;5.88;;;3.08;;
39930;SDS011;26635;-35.248;149.138;2023-02-01T15:49:05;2.78;;;2.00;;
39930;SDS011;26635;-35.248;149.138;2023-02-01T15:52:00;5.90;;;2.88;;
39930;SDS011;26635;-35.248;149.138;2023-02-01T15:54:34;3.38;;;2.50;;
39930;SDS011;26635;-35.248;149.138;2023-02-01T15:57:12;5.38;;;2.63;;
39930;SDS011;26635;-35.248;149.138;2023-02-01T16:00:00;7.63;;;2.85;;
39930;SDS011;26635;-35.248;149.138;2023-02-01T16:05:29;4.72;;;3.28;;
39930;SDS011;26635;-35.248;149.138;2023-02-01T16:10:42;4.75;;;2.42;;
39930;SDS011;26635;-35.248;149.138;2023-02-01T16:13:15;3.92;;;2.20;;
39930;SDS011;26635;-35.248;149.138;2023-02-01T16:15:46;4.05;;;2.15;;
39930;SDS011;26635;-35.248;149.138;2023-02-01T16:18:17;3.90;;;2.25;;
39930;SDS011;26635;-35.248;149.138;2023-02-01T16:20:48;3.30;;;2.10;;
39930;SDS011;26635;-35.248;149.138;2023-02-01T16:23:18;2.78;;;2.08;;
39930;SDS011;26635;-35.248;149.138;2023-02-01T16:25:49;4.55;;;2.33;;
39930;SDS011;26635;-35.248;149.138;2023-02-01T16:28:19;4.63;;;2.55;;
39930;SDS011;26635;-35.248;149.138;2023-02-01T16:30:49;4.03;;;2.20;;
39930;SDS011;26635;-35.248;149.138;2023-02-01T16:33:20;5.07;;;2.63;;
39930;SDS011;26635;-35.248;149.138;2023-02-01T16:35:51;3.83;;;2.25;;
39930;SDS011;26635;-35.248;149.138;2023-02-01T16:38:28;4.32;;;2.30;;
39930;SDS011;26635;-35.248;149.138;2023-02-01T16:41:00;3.70;;;2.35;;
39930;SDS011;26635;-35.248;149.138;2023-02-01T16:43:31;3.80;;;2.10;;
39930;SDS011;26635;-35.248;149.138;2023-02-01T16:46:01;5.10;;;2.53;;
39930;SDS011;26635;-35.248;149.138;2023-02-01T16:48:35;4.40;;;2.38;;
39930;SDS011;26635;-35.248;149.138;2023-02-01T16:51:10;3.75;;;2.38;;
39930;SDS011;26635;-35.248;149.138;2023-02-01T16:53:45;5.22;;;2.70;;
39930;SDS011;26635;-35.248;149.138;2023-02-01T16:56:22;5.43;;;2.58;;
39930;SDS011;26635;-35.248;149.138;2023-02-01T16:58:55;4.97;;;2.35;;
39930;SDS011;26635;-35.248;149.138;2023-02-01T17:01:26;4.88;;;2.67;;
39930;SDS011;26635;-35.248;149.138;2023-02-01T17:03:57;3.67;;;2.22;;
39930;SDS011;26635;-35.248;149.138;2023-02-01T17:06:27;3.25;;;2.05;;
39930;SDS011;26635;-35.248;149.138;2023-02-01T17:09:00;2.95;;;2.25;;
39930;SDS011;26635;-35.248;149.138;2023-02-01T17:11:32;4.38;;;2.70;;
39930;SDS011;26635;-35.248;149.138;2023-02-01T17:16:48;3.08;;;2.22;;
39930;SDS011;26635;-35.248;149.138;2023-02-01T17:19:20;3.38;;;2.17;;
39930;SDS011;26635;-35.248;149.138;2023-02-01T17:21:53;4.38;;;2.70;;
39930;SDS011;26635;-35.248;149.138;2023-02-01T17:24:28;3.53;;;2.15;;
39930;SDS011;26635;-35.248;149.138;2023-02-01T17:29:44;3.10;;;2.08;;
39930;SDS011;26635;-35.248;149.138;2023-02-01T17:32:19;4.50;;;1.95;;
39930;SDS011;26635;-35.248;149.138;2023-02-01T17:34:52;3.72;;;2.40;;
39930;SDS011;26635;-35.248;149.138;2023-02-01T17:37:32;4.47;;;2.50;;
39930;SDS011;26635;-35.248;149.138;2023-02-01T17:40:04;4.65;;;3.42;;
39930;SDS011;26635;-35.248;149.138;2023-02-01T17:42:34;4.22;;;2.55;;
39930;SDS011;26635;-35.248;149.138;2023-02-01T17:48:05;2.85;;;1.85;;
39930;SDS011;26635;-35.248;149.138;2023-02-01T17:50:36;2.90;;;2.13;;
39930;SDS011;26635;-35.248;149.138;2023-02-01T17:53:08;5.55;;;2.72;;
39930;SDS011;26635;-35.248;149.138;2023-02-01T17:55:42;4.60;;;2.20;;
39930;SDS011;26635;-35.248;149.138;2023-02-01T17:58:14;4.00;;;2.38;;